createdAt,value
2023-03-31T00:00:58.158Z,48.27
2023-03-31T00:03:25.015Z,48.25
2023-03-31T00:05:51.507Z,48.85
2023-03-31T00:08:17.907Z,49.41
2023-03-31T00:10:44.324Z,48.98
2023-03-31T00:13:10.711Z,49.65
2023-03-31T00:15:37.105Z,49.71
2023-03-31T00:18:03.528Z,49.95
2023-03-31T00:20:29.952Z,49.61
2023-03-31T00:22:56.393Z,50.58
2023-03-31T00:25:22.770Z,50.83
2023-03-31T00:27:49.196Z,51.49
2023-03-31T00:30:15.570Z,51.68
2023-03-31T00:32:42.010Z,51.90
2023-03-31T00:35:08.426Z,52.48
2023-03-31T00:37:34.858Z,52.97
2023-03-31T00:40:01.256Z,54.16
2023-03-31T00:42:27.657Z,55.51
2023-03-31T00:44:54.094Z,55.68
2023-03-31T00:47:20.520Z,56.07
2023-03-31T00:49:46.915Z,55.52
2023-03-31T00:52:13.299Z,55.68
2023-03-31T00:54:39.764Z,56.03
2023-03-31T00:57:06.191Z,55.13
2023-03-31T00:59:32.619Z,54.99
2023-03-31T01:01:59.022Z,54.73
2023-03-31T01:04:25.421Z,55.10
2023-03-31T01:06:51.841Z,55.02
2023-03-31T01:09:18.275Z,54.92
2023-03-31T01:11:44.689Z,54.69
2023-03-31T01:14:11.086Z,54.29
2023-03-31T01:16:37.573Z,54.04
2023-03-31T01:19:04.080Z,53.97
2023-03-31T01:21:30.532Z,53.75
2023-03-31T01:23:56.921Z,53.35
2023-03-31T01:26:23.515Z,52.65
2023-03-31T01:28:49.902Z,53.15
2023-03-31T01:31:16.322Z,53.37
2023-03-31T01:33:42.711Z,52.51
2023-03-31T01:36:09.284Z,52.23
2023-03-31T01:38:35.784Z,52.19
2023-03-31T01:41:02.164Z,52.04
2023-03-31T01:43:28.562Z,52.44
2023-03-31T01:45:55.011Z,53.13
2023-03-31T01:48:21.414Z,52.78
2023-03-31T01:50:47.810Z,54.65
2023-03-31T01:53:14.232Z,54.78
2023-03-31T01:55:40.635Z,54.71
2023-03-31T01:58:07.057Z,55.52
2023-03-31T02:00:33.498Z,55.78
2023-03-31T02:02:59.979Z,57.42
2023-03-31T02:05:26.404Z,58.46
2023-03-31T02:07:52.833Z,59.25
2023-03-31T02:10:19.271Z,59.28
2023-03-31T02:12:45.692Z,59.94
2023-03-31T02:15:12.106Z,60.11
2023-03-31T02:17:38.547Z,60.13
2023-03-31T02:20:05.000Z,61.39
2023-03-31T02:22:31.442Z,61.84
2023-03-31T02:24:57.829Z,61.91
2023-03-31T02:27:24.244Z,61.50
2023-03-31T02:29:50.690Z,61.75
2023-03-31T02:32:17.117Z,61.16
2023-03-31T02:34:43.504Z,60.77
2023-03-31T02:37:09.906Z,61.00
2023-03-31T02:39:36.303Z,61.47
2023-03-31T02:42:02.691Z,61.95
2023-03-31T02:44:29.074Z,61.84
2023-03-31T02:46:56.634Z,60.80
2023-03-31T02:49:23.063Z,61.38
2023-03-31T02:51:49.543Z,61.87
2023-03-31T02:54:15.967Z,61.28
2023-03-31T02:56:42.403Z,61.22
2023-03-31T02:59:08.823Z,61.15
2023-03-31T03:01:35.285Z,60.96
2023-03-31T03:04:01.808Z,60.42
2023-03-31T03:06:28.193Z,60.26
2023-03-31T03:08:54.574Z,59.78
2023-03-31T03:11:21.010Z,60.05
2023-03-31T03:13:47.445Z,60.31
2023-03-31T03:16:13.940Z,60.11
2023-03-31T03:18:40.447Z,61.05
2023-03-31T03:21:06.860Z,62.08
2023-03-31T03:23:33.253Z,63.80
2023-03-31T03:25:59.673Z,63.66
2023-03-31T03:28:26.084Z,63.46
2023-03-31T03:30:52.501Z,64.29
2023-03-31T03:33:19.008Z,65.05
2023-03-31T03:35:45.472Z,66.43
2023-03-31T03:38:11.852Z,65.79
2023-03-31T03:40:38.232Z,65.73
2023-03-31T03:43:04.687Z,64.99
2023-03-31T03:45:31.065Z,65.84
2023-03-31T03:47:57.652Z,64.87
2023-03-31T03:50:24.082Z,64.83
2023-03-31T03:52:50.453Z,63.28
2023-03-31T03:55:16.853Z,62.50
2023-03-31T03:57:43.266Z,62.64
2023-03-31T04:00:09.677Z,61.98
2023-03-31T04:02:36.202Z,62.14
2023-03-31T04:05:02.755Z,62.74
2023-03-31T04:07:29.214Z,62.06
2023-03-31T04:09:55.628Z,61.37
2023-03-31T04:12:22.018Z,62.15
2023-03-31T04:14:48.481Z,62.24
2023-03-31T04:17:14.963Z,61.80
2023-03-31T04:19:41.404Z,61.18
2023-03-31T04:22:07.850Z,63.72
2023-03-31T04:24:34.279Z,63.89
2023-03-31T04:27:00.678Z,63.82
2023-03-31T04:29:27.090Z,63.00
2023-03-31T04:31:53.500Z,62.95
2023-03-31T04:34:19.936Z,63.59
2023-03-31T04:36:46.333Z,62.81
2023-03-31T04:39:12.721Z,63.29
2023-03-31T04:41:39.136Z,62.11
2023-03-31T04:44:05.538Z,63.53
2023-03-31T04:46:31.941Z,62.95
2023-03-31T04:48:58.374Z,59.15
2023-03-31T04:51:24.749Z,60.04
2023-03-31T04:53:51.129Z,58.51
2023-03-31T04:56:17.506Z,58.16
2023-03-31T04:58:43.929Z,58.29
2023-03-31T05:01:10.366Z,58.85
2023-03-31T05:03:36.827Z,60.39
2023-03-31T05:06:03.578Z,60.93
2023-03-31T05:08:30.113Z,61.04
2023-03-31T05:10:56.512Z,60.43
2023-03-31T05:13:22.908Z,60.59
2023-03-31T05:15:49.321Z,60.51
2023-03-31T05:18:15.714Z,59.74
2023-03-31T05:20:42.096Z,60.69
2023-03-31T05:23:08.494Z,60.33
2023-03-31T05:25:34.896Z,59.97
2023-03-31T05:28:01.325Z,58.97
2023-03-31T05:30:27.765Z,59.16
2023-03-31T05:32:54.216Z,58.95
2023-03-31T05:35:20.670Z,60.49
2023-03-31T05:37:47.119Z,62.08
2023-03-31T05:40:13.552Z,63.75
2023-03-31T05:42:39.955Z,64.32
2023-03-31T05:45:08.565Z,64.91
2023-03-31T05:47:35.608Z,65.01
2023-03-31T05:50:02.054Z,64.89
2023-03-31T05:52:28.469Z,66.47
2023-03-31T05:54:54.857Z,66.46
2023-03-31T05:57:21.310Z,66.43
2023-03-31T05:59:47.780Z,66.74
2023-03-31T06:02:14.221Z,67.26
2023-03-31T06:04:40.785Z,66.25
2023-03-31T06:07:07.292Z,65.56
2023-03-31T06:09:33.690Z,65.46
2023-03-31T06:12:00.135Z,65.36
2023-03-31T06:14:26.630Z,65.79
2023-03-31T06:16:53.288Z,64.51
2023-03-31T06:19:20.871Z,65.00
2023-03-31T06:21:47.318Z,65.34
2023-03-31T06:24:13.705Z,64.31
2023-03-31T06:26:40.112Z,63.90
2023-03-31T06:29:06.563Z,64.03
2023-03-31T06:31:33.043Z,63.45
2023-03-31T06:33:59.440Z,64.80
2023-03-31T06:36:25.806Z,64.64
2023-03-31T06:38:52.250Z,64.73
2023-03-31T06:41:18.668Z,65.57
2023-03-31T06:43:45.076Z,65.55
2023-03-31T06:46:13.597Z,66.15
2023-03-31T06:48:40.011Z,66.04
2023-03-31T06:51:06.435Z,66.57
2023-03-31T06:53:32.874Z,65.85
2023-03-31T06:55:59.283Z,65.76
2023-03-31T06:58:26.342Z,65.85
2023-03-31T07:00:53.633Z,64.79
2023-03-31T07:03:20.125Z,64.65
2023-03-31T07:05:46.639Z,65.96
2023-03-31T07:08:13.035Z,64.93
2023-03-31T07:10:39.451Z,64.81
2023-03-31T07:13:05.962Z,65.26
2023-03-31T07:15:32.639Z,64.66
2023-03-31T07:17:59.090Z,64.35
2023-03-31T07:20:25.522Z,63.32
2023-03-31T07:22:51.962Z,62.92
2023-03-31T07:25:18.327Z,62.81
2023-03-31T07:27:44.733Z,62.87
2023-03-31T07:30:11.134Z,61.49
2023-03-31T07:32:37.571Z,61.24
2023-03-31T07:35:04.013Z,61.45
2023-03-31T07:37:30.381Z,61.07
2023-03-31T07:39:56.810Z,60.85
2023-03-31T07:42:23.221Z,60.18
2023-03-31T07:44:49.612Z,61.18
2023-03-31T07:47:16.007Z,58.92
2023-03-31T07:49:42.434Z,55.39
2023-03-31T07:52:08.857Z,52.37
2023-03-31T07:54:35.243Z,49.03
2023-03-31T07:57:01.723Z,50.55
2023-03-31T07:59:28.200Z,51.47
2023-03-31T08:01:54.649Z,53.86
2023-03-31T08:04:21.440Z,57.00
2023-03-31T08:06:47.956Z,59.32
2023-03-31T08:09:14.417Z,59.70
2023-03-31T08:11:40.801Z,60.91
2023-03-31T08:14:07.216Z,62.59
2023-03-31T08:16:33.643Z,62.52
2023-03-31T08:19:00.094Z,63.13
2023-03-31T08:21:26.510Z,63.14
2023-03-31T08:23:52.914Z,63.00
2023-03-31T08:26:19.326Z,62.81
2023-03-31T08:28:45.772Z,61.19
2023-03-31T08:31:12.213Z,62.61
2023-03-31T08:33:38.594Z,62.55
2023-03-31T08:36:05.201Z,62.44
2023-03-31T08:38:31.795Z,62.66
2023-03-31T08:40:58.200Z,61.85
2023-03-31T08:43:24.560Z,62.02
2023-03-31T08:45:51.019Z,62.88
2023-03-31T08:48:17.483Z,60.53
2023-03-31T08:50:43.858Z,60.17
2023-03-31T08:53:10.256Z,58.04
2023-03-31T08:55:36.682Z,58.87
2023-03-31T08:58:03.091Z,58.41
2023-03-31T09:00:29.500Z,60.75
2023-03-31T09:02:55.988Z,60.50
2023-03-31T09:05:22.443Z,59.73
2023-03-31T09:07:48.832Z,59.20
2023-03-31T09:10:15.255Z,58.22
2023-03-31T09:12:41.680Z,57.86
2023-03-31T09:15:08.090Z,57.17
2023-03-31T09:17:34.568Z,55.78
2023-03-31T09:20:01.007Z,55.83
2023-03-31T09:22:27.409Z,55.56
2023-03-31T09:24:53.843Z,57.06
2023-03-31T09:27:20.258Z,56.27
2023-03-31T09:29:46.672Z,56.11
2023-03-31T09:32:13.075Z,54.31
2023-03-31T09:34:39.471Z,55.19
2023-03-31T09:37:05.856Z,53.45
2023-03-31T09:39:32.268Z,54.45
2023-03-31T09:41:58.671Z,53.73
2023-03-31T09:44:25.103Z,57.36
2023-03-31T09:46:51.660Z,65.61
2023-03-31T09:49:18.136Z,63.95
2023-03-31T09:51:44.585Z,63.52
2023-03-31T09:54:10.998Z,64.76
2023-03-31T09:56:37.419Z,62.92
2023-03-31T09:59:03.807Z,61.49
2023-03-31T10:01:30.230Z,61.57
2023-03-31T10:03:56.735Z,60.32
2023-03-31T10:06:23.196Z,60.12
2023-03-31T10:08:49.599Z,58.85
2023-03-31T10:11:16.024Z,56.67
2023-03-31T10:13:42.474Z,54.71
2023-03-31T10:16:08.981Z,53.44
2023-03-31T10:18:35.494Z,55.27
2023-03-31T10:21:01.939Z,53.37
2023-03-31T10:23:28.360Z,50.01
2023-03-31T10:25:54.789Z,52.96
2023-03-31T10:28:21.258Z,52.83
2023-03-31T10:30:47.651Z,52.06
2023-03-31T10:33:22.248Z,47.64
2023-03-31T10:35:49.747Z,46.92
2023-03-31T10:38:16.305Z,48.88
2023-03-31T10:40:42.733Z,48.83
2023-03-31T10:43:09.157Z,48.14
2023-03-31T10:45:37.695Z,46.59
2023-03-31T10:48:04.726Z,41.08
2023-03-31T10:50:31.212Z,40.44
2023-03-31T10:52:57.702Z,41.79
2023-03-31T10:55:24.086Z,42.97
2023-03-31T10:57:50.487Z,40.39
2023-03-31T11:00:16.918Z,40.00
2023-03-31T11:02:43.370Z,41.80
2023-03-31T11:05:09.803Z,42.52
2023-03-31T11:07:36.217Z,45.54
2023-03-31T11:10:02.615Z,50.73
2023-03-31T11:12:29.012Z,57.61
2023-03-31T11:14:55.421Z,58.69
2023-03-31T11:17:21.865Z,59.07
2023-03-31T11:19:48.395Z,59.93
2023-03-31T11:22:14.786Z,62.42
2023-03-31T11:24:41.189Z,58.54
2023-03-31T11:27:07.574Z,59.89
2023-03-31T11:29:33.949Z,54.80
2023-03-31T11:32:00.370Z,56.01
2023-03-31T11:34:26.806Z,55.48
2023-03-31T11:36:53.259Z,54.02
2023-03-31T11:39:19.688Z,53.79
2023-03-31T11:41:46.137Z,51.28
2023-03-31T11:44:12.549Z,52.21
2023-03-31T11:46:39.102Z,50.96
2023-03-31T11:49:05.530Z,49.82
2023-03-31T11:51:31.934Z,49.94
2023-03-31T11:53:58.342Z,47.96
2023-03-31T11:56:24.737Z,47.87
2023-03-31T11:58:51.114Z,50.49
2023-03-31T12:01:17.525Z,49.37
2023-03-31T12:03:44.098Z,50.91
2023-03-31T12:06:10.753Z,50.80
2023-03-31T12:08:37.445Z,50.57
2023-03-31T12:11:03.870Z,48.64
2023-03-31T12:13:30.360Z,48.40
2023-03-31T12:15:56.812Z,50.08
2023-03-31T12:18:23.249Z,50.97
2023-03-31T12:20:49.649Z,49.27
2023-03-31T12:23:16.042Z,49.33
2023-03-31T12:25:42.431Z,50.47
2023-03-31T12:28:08.815Z,50.24
2023-03-31T12:30:35.229Z,49.85
2023-03-31T12:33:01.720Z,49.75
2023-03-31T12:35:28.186Z,48.50
2023-03-31T12:37:54.593Z,49.96
2023-03-31T12:40:20.984Z,48.69
2023-03-31T12:42:47.425Z,51.27
2023-03-31T12:45:13.831Z,51.31
2023-03-31T12:47:40.262Z,52.77
2023-03-31T12:50:06.711Z,50.56
2023-03-31T12:52:33.123Z,50.96
2023-03-31T12:54:59.522Z,50.98
2023-03-31T12:57:25.959Z,50.91
2023-03-31T12:59:52.390Z,51.44
2023-03-31T13:02:18.825Z,51.01
2023-03-31T13:04:45.241Z,52.37
2023-03-31T13:07:25.042Z,52.07
2023-03-31T13:09:54.449Z,51.76
2023-03-31T13:12:20.847Z,51.13
2023-03-31T13:14:47.347Z,51.59
2023-03-31T13:17:13.856Z,50.99
2023-03-31T13:19:40.394Z,53.01
2023-03-31T13:22:06.931Z,52.94
2023-03-31T13:24:33.340Z,51.79
2023-03-31T13:26:59.757Z,51.74
2023-03-31T13:29:26.161Z,51.60
2023-03-31T13:31:52.612Z,48.12
2023-03-31T13:34:19.057Z,44.57
2023-03-31T13:36:45.468Z,45.32
2023-03-31T13:39:12.920Z,45.54
2023-03-31T13:41:39.558Z,43.85
2023-03-31T13:44:05.957Z,41.73
2023-03-31T13:46:32.404Z,41.85
2023-03-31T13:48:58.846Z,40.54
2023-03-31T13:51:25.254Z,39.01
2023-03-31T13:53:51.660Z,35.49
2023-03-31T13:56:18.182Z,38.26
2023-03-31T13:58:44.579Z,37.99
2023-03-31T14:01:11.030Z,40.24
2023-03-31T14:03:37.623Z,40.30
2023-03-31T14:06:04.165Z,39.95
2023-03-31T14:08:30.582Z,41.71
2023-03-31T14:13:02.110Z,70.06
2023-03-31T14:15:28.543Z,74.71
2023-03-31T14:17:54.974Z,78.31
2023-03-31T14:20:21.470Z,78.13
2023-03-31T14:22:47.947Z,77.66
2023-03-31T14:25:14.353Z,79.73
2023-03-31T14:27:40.735Z,78.66
2023-03-31T14:30:07.202Z,80.90
2023-03-31T14:32:33.663Z,77.98
2023-03-31T14:35:00.623Z,81.09
2023-03-31T14:37:27.263Z,77.17
2023-03-31T14:39:53.697Z,71.00
2023-03-31T14:42:20.134Z,65.10
2023-03-31T14:44:48.370Z,48.02
2023-03-31T14:47:15.191Z,45.44
2023-03-31T14:49:41.612Z,47.00
2023-03-31T14:52:07.981Z,60.13
2023-03-31T14:54:34.391Z,68.03
2023-03-31T14:57:00.778Z,67.83
2023-03-31T14:59:27.216Z,68.36
2023-03-31T15:01:53.631Z,73.50
2023-03-31T15:04:20.474Z,69.41
2023-03-31T15:06:52.205Z,73.10
2023-03-31T15:09:18.608Z,73.64
2023-03-31T15:11:45.043Z,69.62
2023-03-31T15:14:11.422Z,71.88
2023-03-31T15:16:37.873Z,71.99
2023-03-31T15:19:04.388Z,68.81
2023-03-31T15:21:30.782Z,70.21
2023-03-31T15:23:57.165Z,73.46
2023-03-31T15:29:09.920Z,70.82
2023-03-31T15:31:36.452Z,71.72
2023-03-31T15:34:03.003Z,68.28
2023-03-31T15:36:29.494Z,66.65
2023-03-31T15:38:55.919Z,68.11
2023-03-31T15:43:49.950Z,73.63
2023-03-31T15:46:16.398Z,68.75
2023-03-31T15:48:42.823Z,73.53
2023-03-31T15:51:09.235Z,68.82
2023-03-31T15:53:35.635Z,68.47
2023-03-31T15:56:02.091Z,63.31
2023-03-31T15:58:28.524Z,62.35
2023-03-31T16:00:54.921Z,66.24
2023-03-31T16:03:23.577Z,66.29
2023-03-31T16:05:54.468Z,66.42
2023-03-31T16:08:21.305Z,67.42
2023-03-31T16:10:47.703Z,62.34
2023-03-31T16:13:14.109Z,64.38
2023-03-31T16:15:40.559Z,62.78
2023-03-31T16:18:07.119Z,66.89
2023-03-31T16:20:33.576Z,64.43
2023-03-31T16:22:59.962Z,61.35
2023-03-31T16:25:26.387Z,63.76
2023-03-31T16:27:52.795Z,67.79
2023-03-31T16:30:19.234Z,62.62
2023-03-31T16:32:45.701Z,60.85
2023-03-31T16:35:12.182Z,63.51
2023-03-31T16:37:38.607Z,64.13
2023-03-31T16:40:05.034Z,63.00
2023-03-31T16:42:31.458Z,64.14
2023-03-31T16:45:13.009Z,74.28
2023-03-31T16:47:43.672Z,79.81
2023-03-31T16:50:11.806Z,81.58
2023-03-31T16:52:38.242Z,79.90
2023-03-31T16:55:04.688Z,79.88
2023-03-31T16:57:31.103Z,80.19
2023-03-31T16:59:58.992Z,80.49
2023-03-31T17:02:25.630Z,79.91
2023-03-31T17:04:54.260Z,79.85
2023-03-31T17:07:22.952Z,82.77
2023-03-31T17:09:49.333Z,83.76
2023-03-31T17:12:15.709Z,83.24
2023-03-31T17:14:42.128Z,85.32
2023-03-31T17:17:08.564Z,85.35
2023-03-31T17:19:34.940Z,86.00
2023-03-31T17:22:01.342Z,85.98
2023-03-31T17:24:27.764Z,82.48
2023-03-31T17:26:54.155Z,82.10
2023-03-31T17:29:20.571Z,80.75
2023-03-31T17:31:46.983Z,83.60
2023-03-31T17:34:13.416Z,83.65
2023-03-31T17:36:40.021Z,82.36
2023-03-31T17:39:06.489Z,83.96
2023-03-31T17:41:33.086Z,84.84
2023-03-31T17:43:59.502Z,83.79
2023-03-31T17:46:25.997Z,83.02
2023-03-31T17:48:52.433Z,82.74
2023-03-31T17:51:18.788Z,84.82
2023-03-31T17:53:45.504Z,83.63
2023-03-31T17:56:12.105Z,83.85
2023-03-31T17:58:38.487Z,84.18
2023-03-31T18:01:04.886Z,81.71
2023-03-31T18:03:31.272Z,82.78
2023-03-31T18:05:57.670Z,83.13
2023-03-31T18:08:24.061Z,81.99
2023-03-31T18:10:50.517Z,82.33
2023-03-31T18:13:16.960Z,79.79
2023-03-31T18:15:43.423Z,80.02
2023-03-31T18:18:09.858Z,81.00
2023-03-31T18:20:36.527Z,80.51
2023-03-31T18:23:03.099Z,80.73
2023-03-31T18:28:13.717Z,80.44
2023-03-31T18:30:40.124Z,80.71
2023-03-31T18:33:06.586Z,78.90
2023-03-31T18:35:33.091Z,76.04
2023-03-31T18:37:59.494Z,77.18
2023-03-31T18:40:25.910Z,77.58
2023-03-31T18:42:52.285Z,77.90
2023-03-31T18:45:18.680Z,76.88
2023-03-31T18:47:45.139Z,77.83
2023-03-31T18:50:11.629Z,78.73
2023-03-31T18:52:38.041Z,78.84
2023-03-31T18:55:04.481Z,77.17
2023-03-31T18:57:30.909Z,75.31
2023-03-31T18:59:57.359Z,77.97
2023-03-31T19:02:23.818Z,77.21
2023-03-31T19:04:50.380Z,78.84
2023-03-31T19:07:16.770Z,75.76
2023-03-31T19:09:43.179Z,76.99
2023-03-31T19:12:09.576Z,74.32
2023-03-31T19:14:36.024Z,74.34
2023-03-31T19:17:02.441Z,77.79
2023-03-31T19:19:28.870Z,76.88
2023-03-31T19:21:55.296Z,75.16
2023-03-31T19:24:21.693Z,76.19
2023-03-31T19:26:48.226Z,75.10
2023-03-31T19:29:14.609Z,76.90
2023-03-31T19:31:41.035Z,76.21
2023-03-31T19:34:07.449Z,76.02
2023-03-31T19:36:33.851Z,77.62
2023-03-31T19:39:00.287Z,77.54
2023-03-31T19:41:26.682Z,79.11
2023-03-31T19:43:53.052Z,81.51
2023-03-31T19:46:19.461Z,82.28
2023-03-31T19:48:45.875Z,82.12
2023-03-31T19:51:12.305Z,82.99
2023-03-31T19:53:38.675Z,82.92
2023-03-31T19:56:05.117Z,82.60
2023-03-31T19:58:31.546Z,82.10
2023-03-31T20:00:57.984Z,81.51
2023-03-31T20:03:24.635Z,81.26
2023-03-31T20:05:51.142Z,81.11
2023-03-31T20:08:17.533Z,81.67
2023-03-31T20:10:43.974Z,81.40
2023-03-31T20:13:10.405Z,81.14
2023-03-31T20:15:37.147Z,81.81
2023-03-31T20:18:04.827Z,80.61
2023-03-31T20:20:31.315Z,81.55
2023-03-31T20:22:57.713Z,82.88
2023-03-31T20:25:24.086Z,82.30
2023-03-31T20:27:50.484Z,81.94
2023-03-31T20:30:16.932Z,82.86
2023-03-31T20:32:43.377Z,83.39
2023-03-31T20:35:09.821Z,82.64
2023-03-31T20:37:36.217Z,84.00
2023-03-31T20:40:02.602Z,84.92
2023-03-31T20:42:29.012Z,84.58
2023-03-31T20:44:55.420Z,83.22
2023-03-31T20:47:21.817Z,84.77
2023-03-31T20:49:48.189Z,84.83
2023-03-31T20:52:14.564Z,85.75
2023-03-31T20:54:40.942Z,84.38
2023-03-31T20:57:07.406Z,85.63
2023-03-31T20:59:33.934Z,86.52
2023-03-31T21:02:00.321Z,87.24
2023-03-31T21:04:26.741Z,86.02
2023-03-31T21:06:53.123Z,87.75
2023-03-31T21:09:19.498Z,88.01
2023-03-31T21:11:45.908Z,87.82
2023-03-31T21:14:12.308Z,87.15
2023-03-31T21:16:38.715Z,87.61
2023-03-31T21:19:05.168Z,86.91
2023-03-31T21:21:31.596Z,87.58
2023-03-31T21:23:58.008Z,86.15
2023-03-31T21:26:24.404Z,87.70
2023-03-31T21:28:50.790Z,87.59
2023-03-31T21:31:17.234Z,88.08
2023-03-31T21:33:43.640Z,86.98
2023-03-31T21:36:10.049Z,86.63
2023-03-31T21:38:36.717Z,87.48
2023-03-31T21:41:03.111Z,88.08
2023-03-31T21:43:29.535Z,87.59
2023-03-31T21:45:55.958Z,86.92
2023-03-31T21:48:22.362Z,86.54
2023-03-31T21:50:48.726Z,86.95
2023-03-31T21:53:15.099Z,86.81
2023-03-31T21:55:41.507Z,87.21
2023-03-31T21:58:07.908Z,86.60
2023-03-31T22:00:34.387Z,87.54
2023-03-31T22:05:30.223Z,85.96
2023-03-31T22:07:56.840Z,86.64
2023-03-31T22:10:23.235Z,86.77
2023-03-31T22:12:49.668Z,86.17
2023-03-31T22:15:16.065Z,86.56
2023-03-31T22:17:42.454Z,87.23
2023-03-31T22:20:08.895Z,86.73
2023-03-31T22:22:35.284Z,86.99
2023-03-31T22:25:01.681Z,87.09
2023-03-31T22:27:28.092Z,87.04
2023-03-31T22:29:54.515Z,88.25
2023-03-31T22:32:20.878Z,87.68
2023-03-31T22:34:47.274Z,88.02
2023-03-31T22:37:13.666Z,87.98
2023-03-31T22:39:40.057Z,88.32
2023-03-31T22:42:06.458Z,88.06
2023-03-31T22:44:32.861Z,88.11
2023-03-31T22:46:59.317Z,88.31
2023-03-31T22:49:25.738Z,89.18
2023-03-31T22:51:52.146Z,88.35
2023-03-31T22:54:18.534Z,88.48
2023-03-31T22:56:44.937Z,89.23
2023-03-31T22:59:11.348Z,89.30
2023-03-31T23:01:37.723Z,89.74
2023-03-31T23:04:04.175Z,89.40
2023-03-31T23:06:30.659Z,89.87
2023-03-31T23:08:57.077Z,89.58
2023-03-31T23:11:23.497Z,88.73
2023-03-31T23:13:49.871Z,89.33
2023-03-31T23:16:16.282Z,88.84
2023-03-31T23:18:42.710Z,87.92
2023-03-31T23:21:09.094Z,87.81
2023-03-31T23:23:35.475Z,88.74
2023-03-31T23:26:01.888Z,88.12
2023-03-31T23:28:28.269Z,88.96
2023-03-31T23:30:54.672Z,88.31
2023-03-31T23:33:21.061Z,88.66
2023-03-31T23:35:47.508Z,88.48
2023-03-31T23:38:14.065Z,88.51
2023-03-31T23:40:40.502Z,88.25
2023-03-31T23:43:06.903Z,89.00
2023-03-31T23:45:33.558Z,88.01
2023-03-31T23:48:00.286Z,88.47
2023-03-31T23:50:26.697Z,87.81
2023-03-31T23:52:53.080Z,87.46
2023-03-31T23:55:19.495Z,88.81
2023-03-31T23:57:45.904Z,89.14
